sensor_id;sensor_type;location;lat;lon;timestamp;temperature;humidity
27922;DHT22;15261;50.356;10.340;2023-11-21T00:00:21;8.10;99.90
27922;DHT22;15261;50.356;10.340;2023-11-21T00:02:46;8.20;99.90
27922;DHT22;15261;50.356;10.340;2023-11-21T00:05:13;8.30;99.90
27922;DHT22;15261;50.356;10.340;2023-11-21T00:07:40;8.10;99.90
27922;DHT22;15261;50.356;10.340;2023-11-21T00:10:06;8.10;99.90
27922;DHT22;15261;50.356;10.340;2023-11-21T00:12:33;8.10;99.90
27922;DHT22;15261;50.356;10.340;2023-11-21T00:14:59;8.10;99.90
27922;DHT22;15261;50.356;10.340;2023-11-21T00:17:25;8.10;99.90
27922;DHT22;15261;50.356;10.340;2023-11-21T00:19:51;8.10;99.90
27922;DHT22;15261;50.356;10.340;2023-11-21T00:22:19;8.10;99.90
27922;DHT22;15261;50.356;10.340;2023-11-21T00:24:45;8.20;99.90
27922;DHT22;15261;50.356;10.340;2023-11-21T00:27:11;8.30;99.90
27922;DHT22;15261;50.356;10.340;2023-11-21T00:29:36;8.30;99.90
27922;DHT22;15261;50.356;10.340;2023-11-21T00:32:02;8.40;99.90
27922;DHT22;15261;50.356;10.340;2023-11-21T00:34:28;8.40;99.90
27922;DHT22;15261;50.356;10.340;2023-11-21T00:36:53;8.50;99.90
27922;DHT22;15261;50.356;10.340;2023-11-21T00:39:19;8.50;99.90
27922;DHT22;15261;50.356;10.340;2023-11-21T00:41:45;8.50;99.90
27922;DHT22;15261;50.356;10.340;2023-11-21T00:44:11;8.40;99.90
27922;DHT22;15261;50.356;10.340;2023-11-21T00:46:36;8.30;99.90
27922;DHT22;15261;50.356;10.340;2023-11-21T00:49:02;8.40;99.90
27922;DHT22;15261;50.356;10.340;2023-11-21T00:51:29;8.40;99.90
27922;DHT22;15261;50.356;10.340;2023-11-21T00:53:55;8.40;99.90
27922;DHT22;15261;50.356;10.340;2023-11-21T00:56:21;8.40;99.90
27922;DHT22;15261;50.356;10.340;2023-11-21T00:58:47;8.50;99.90
27922;DHT22;15261;50.356;10.340;2023-11-21T01:01:16;8.50;99.90
27922;DHT22;15261;50.356;10.340;2023-11-21T01:03:41;8.50;99.90
27922;DHT22;15261;50.356;10.340;2023-11-21T01:06:07;8.50;99.90
27922;DHT22;15261;50.356;10.340;2023-11-21T01:08:34;8.50;99.90
27922;DHT22;15261;50.356;10.340;2023-11-21T01:11:00;8.60;99.90
27922;DHT22;15261;50.356;10.340;2023-11-21T01:13:25;8.60;99.90
27922;DHT22;15261;50.356;10.340;2023-11-21T01:15:55;8.50;99.90
27922;DHT22;15261;50.356;10.340;2023-11-21T01:18:21;8.50;99.90
27922;DHT22;15261;50.356;10.340;2023-11-21T01:20:46;8.40;99.90
27922;DHT22;15261;50.356;10.340;2023-11-21T01:23:13;8.40;99.90
27922;DHT22;15261;50.356;10.340;2023-11-21T01:25:38;8.40;99.90
27922;DHT22;15261;50.356;10.340;2023-11-21T01:28:04;8.40;99.90
27922;DHT22;15261;50.356;10.340;2023-11-21T01:30:29;8.30;99.90
27922;DHT22;15261;50.356;10.340;2023-11-21T01:32:55;8.30;99.90
27922;DHT22;15261;50.356;10.340;2023-11-21T01:35:20;8.30;99.90
27922;DHT22;15261;50.356;10.340;2023-11-21T01:37:46;8.30;99.90
27922;DHT22;15261;50.356;10.340;2023-11-21T01:43:31;8.30;99.90
27922;DHT22;15261;50.356;10.340;2023-11-21T01:45:57;8.40;99.90
27922;DHT22;15261;50.356;10.340;2023-11-21T01:48:24;8.40;99.90
27922;DHT22;15261;50.356;10.340;2023-11-21T01:50:51;8.40;99.90
27922;DHT22;15261;50.356;10.340;2023-11-21T01:53:17;8.40;99.90
27922;DHT22;15261;50.356;10.340;2023-11-21T01:55:45;8.50;99.90
27922;DHT22;15261;50.356;10.340;2023-11-21T01:58:11;8.40;99.90
27922;DHT22;15261;50.356;10.340;2023-11-21T02:56:32;8.30;99.90
27922;DHT22;15261;50.356;10.340;2023-11-21T02:58:59;8.30;99.90
27922;DHT22;15261;50.356;10.340;2023-11-21T03:01:25;8.40;99.90
27922;DHT22;15261;50.356;10.340;2023-11-21T03:03:51;8.30;99.90
27922;DHT22;15261;50.356;10.340;2023-11-21T03:06:20;8.40;99.90
27922;DHT22;15261;50.356;10.340;2023-11-21T03:08:46;8.50;99.90
27922;DHT22;15261;50.356;10.340;2023-11-21T03:11:12;8.50;99.90
27922;DHT22;15261;50.356;10.340;2023-11-21T03:13:41;8.40;99.90
27922;DHT22;15261;50.356;10.340;2023-11-21T03:16:11;8.40;99.90
27922;DHT22;15261;50.356;10.340;2023-11-21T03:18:37;8.30;99.90
27922;DHT22;15261;50.356;10.340;2023-11-21T03:21:29;8.40;99.90
27922;DHT22;15261;50.356;10.340;2023-11-21T03:23:55;8.40;99.90
27922;DHT22;15261;50.356;10.340;2023-11-21T03:26:21;8.50;99.90
27922;DHT22;15261;50.356;10.340;2023-11-21T03:28:46;8.50;99.90
27922;DHT22;15261;50.356;10.340;2023-11-21T03:31:12;8.50;99.90
27922;DHT22;15261;50.356;10.340;2023-11-21T03:33:37;8.50;99.90
27922;DHT22;15261;50.356;10.340;2023-11-21T03:36:03;8.50;99.90
27922;DHT22;15261;50.356;10.340;2023-11-21T03:38:29;8.50;99.90
27922;DHT22;15261;50.356;10.340;2023-11-21T03:40:54;8.50;99.90
27922;DHT22;15261;50.356;10.340;2023-11-21T03:43:20;8.50;99.90
27922;DHT22;15261;50.356;10.340;2023-11-21T03:45:45;8.50;99.90
27922;DHT22;15261;50.356;10.340;2023-11-21T03:48:12;8.60;99.90
27922;DHT22;15261;50.356;10.340;2023-11-21T03:50:38;8.60;99.90
27922;DHT22;15261;50.356;10.340;2023-11-21T03:53:04;8.40;99.90
27922;DHT22;15261;50.356;10.340;2023-11-21T03:55:29;8.40;99.90
27922;DHT22;15261;50.356;10.340;2023-11-21T03:57:57;8.50;99.90
27922;DHT22;15261;50.356;10.340;2023-11-21T04:00:23;8.40;99.90
27922;DHT22;15261;50.356;10.340;2023-11-21T04:02:49;8.30;99.90
27922;DHT22;15261;50.356;10.340;2023-11-21T04:05:16;8.40;99.90
27922;DHT22;15261;50.356;10.340;2023-11-21T04:07:42;8.40;99.90
27922;DHT22;15261;50.356;10.340;2023-11-21T04:10:08;8.50;99.90
27922;DHT22;15261;50.356;10.340;2023-11-21T04:13:07;8.50;99.90
27922;DHT22;15261;50.356;10.340;2023-11-21T04:15:33;8.50;99.90
27922;DHT22;15261;50.356;10.340;2023-11-21T04:17:58;8.50;99.90
27922;DHT22;15261;50.356;10.340;2023-11-21T04:20:24;8.40;99.90
27922;DHT22;15261;50.356;10.340;2023-11-21T04:22:50;8.40;99.90
27922;DHT22;15261;50.356;10.340;2023-11-21T04:25:15;8.40;99.90
27922;DHT22;15261;50.356;10.340;2023-11-21T04:27:41;8.30;99.90
27922;DHT22;15261;50.356;10.340;2023-11-21T04:30:12;8.30;99.90
27922;DHT22;15261;50.356;10.340;2023-11-21T04:32:38;8.30;99.90
27922;DHT22;15261;50.356;10.340;2023-11-21T04:35:10;8.30;99.90
27922;DHT22;15261;50.356;10.340;2023-11-21T04:37:36;8.40;99.90
27922;DHT22;15261;50.356;10.340;2023-11-21T04:40:02;8.30;99.90
27922;DHT22;15261;50.356;10.340;2023-11-21T04:42:33;8.40;99.90
27922;DHT22;15261;50.356;10.340;2023-11-21T04:44:58;8.40;99.90
27922;DHT22;15261;50.356;10.340;2023-11-21T04:47:24;8.30;99.90
27922;DHT22;15261;50.356;10.340;2023-11-21T04:49:49;8.30;99.90
27922;DHT22;15261;50.356;10.340;2023-11-21T04:52:15;8.20;99.90
27922;DHT22;15261;50.356;10.340;2023-11-21T04:54:40;8.20;99.90
27922;DHT22;15261;50.356;10.340;2023-11-21T04:57:06;8.20;99.90
27922;DHT22;15261;50.356;10.340;2023-11-21T04:59:34;8.10;99.90
27922;DHT22;15261;50.356;10.340;2023-11-21T05:02:00;8.10;99.90
27922;DHT22;15261;50.356;10.340;2023-11-21T05:04:26;8.10;99.90
27922;DHT22;15261;50.356;10.340;2023-11-21T05:06:52;8.10;99.90
27922;DHT22;15261;50.356;10.340;2023-11-21T05:09:18;8.20;99.90
27922;DHT22;15261;50.356;10.340;2023-11-21T05:11:43;8.10;99.90
27922;DHT22;15261;50.356;10.340;2023-11-21T05:14:09;8.20;99.90
27922;DHT22;15261;50.356;10.340;2023-11-21T05:16:35;8.20;99.90
27922;DHT22;15261;50.356;10.340;2023-11-21T05:19:30;8.30;99.90
27922;DHT22;15261;50.356;10.340;2023-11-21T05:21:58;8.30;99.90
27922;DHT22;15261;50.356;10.340;2023-11-21T05:24:24;8.30;99.90
27922;DHT22;15261;50.356;10.340;2023-11-21T05:26:49;8.30;99.90
27922;DHT22;15261;50.356;10.340;2023-11-21T05:29:15;8.40;99.90
27922;DHT22;15261;50.356;10.340;2023-11-21T05:31:40;8.30;99.90
27922;DHT22;15261;50.356;10.340;2023-11-21T05:34:06;8.20;99.90
27922;DHT22;15261;50.356;10.340;2023-11-21T05:36:31;8.20;99.90
27922;DHT22;15261;50.356;10.340;2023-11-21T05:38:57;8.10;99.90
27922;DHT22;15261;50.356;10.340;2023-11-21T05:41:22;8.10;99.90
27922;DHT22;15261;50.356;10.340;2023-11-21T05:43:48;8.00;99.90
27922;DHT22;15261;50.356;10.340;2023-11-21T05:46:14;8.00;99.90
27922;DHT22;15261;50.356;10.340;2023-11-21T05:48:40;7.90;99.90
27922;DHT22;15261;50.356;10.340;2023-11-21T05:51:06;7.90;99.90
27922;DHT22;15261;50.356;10.340;2023-11-21T05:53:32;7.90;99.90
27922;DHT22;15261;50.356;10.340;2023-11-21T05:55:57;7.90;99.90
27922;DHT22;15261;50.356;10.340;2023-11-21T05:58:23;7.90;99.90
27922;DHT22;15261;50.356;10.340;2023-11-21T06:00:49;7.90;99.90
27922;DHT22;15261;50.356;10.340;2023-11-21T06:06:36;7.90;99.90
27922;DHT22;15261;50.356;10.340;2023-11-21T06:09:02;7.90;99.90
27922;DHT22;15261;50.356;10.340;2023-11-21T06:11:27;7.80;99.90
27922;DHT22;15261;50.356;10.340;2023-11-21T06:13:53;7.80;99.90
27922;DHT22;15261;50.356;10.340;2023-11-21T06:16:19;7.80;99.90
27922;DHT22;15261;50.356;10.340;2023-11-21T06:18:45;7.80;99.90
27922;DHT22;15261;50.356;10.340;2023-11-21T06:21:16;7.80;99.90
27922;DHT22;15261;50.356;10.340;2023-11-21T06:24:19;7.80;99.90
27922;DHT22;15261;50.356;10.340;2023-11-21T06:26:46;7.80;99.90
27922;DHT22;15261;50.356;10.340;2023-11-21T06:29:21;7.80;99.90
27922;DHT22;15261;50.356;10.340;2023-11-21T06:31:53;7.80;99.90
27922;DHT22;15261;50.356;10.340;2023-11-21T06:34:20;7.70;99.90
27922;DHT22;15261;50.356;10.340;2023-11-21T06:36:47;7.70;99.90
27922;DHT22;15261;50.356;10.340;2023-11-21T06:39:12;7.70;99.90
27922;DHT22;15261;50.356;10.340;2023-11-21T06:41:40;7.80;99.90
27922;DHT22;15261;50.356;10.340;2023-11-21T06:44:06;7.80;99.90
27922;DHT22;15261;50.356;10.340;2023-11-21T06:46:31;7.80;99.90
27922;DHT22;15261;50.356;10.340;2023-11-21T06:48:57;7.80;99.90
27922;DHT22;15261;50.356;10.340;2023-11-21T06:51:22;7.80;99.90
27922;DHT22;15261;50.356;10.340;2023-11-21T06:53:48;7.80;99.90
27922;DHT22;15261;50.356;10.340;2023-11-21T06:56:20;7.90;99.90
27922;DHT22;15261;50.356;10.340;2023-11-21T06:58:46;7.90;99.90
27922;DHT22;15261;50.356;10.340;2023-11-21T07:01:12;7.90;99.90
27922;DHT22;15261;50.356;10.340;2023-11-21T07:03:39;8.00;99.90
27922;DHT22;15261;50.356;10.340;2023-11-21T07:06:05;8.00;99.90
27922;DHT22;15261;50.356;10.340;2023-11-21T07:08:31;8.00;99.90
27922;DHT22;15261;50.356;10.340;2023-11-21T07:10:56;8.00;99.90
27922;DHT22;15261;50.356;10.340;2023-11-21T07:13:22;8.00;99.90
27922;DHT22;15261;50.356;10.340;2023-11-21T07:15:48;8.00;99.90
27922;DHT22;15261;50.356;10.340;2023-11-21T07:18:14;8.10;99.90
27922;DHT22;15261;50.356;10.340;2023-11-21T07:20:39;8.10;99.90
27922;DHT22;15261;50.356;10.340;2023-11-21T07:23:05;8.10;99.90
27922;DHT22;15261;50.356;10.340;2023-11-21T07:25:31;8.00;99.90
27922;DHT22;15261;50.356;10.340;2023-11-21T07:27:57;7.90;99.90
27922;DHT22;15261;50.356;10.340;2023-11-21T07:30:23;8.00;99.90
27922;DHT22;15261;50.356;10.340;2023-11-21T07:32:49;8.00;99.90
27922;DHT22;15261;50.356;10.340;2023-11-21T07:35:14;8.10;99.90
27922;DHT22;15261;50.356;10.340;2023-11-21T07:37:40;8.00;99.90
27922;DHT22;15261;50.356;10.340;2023-11-21T07:40:06;8.00;99.90
27922;DHT22;15261;50.356;10.340;2023-11-21T07:42:34;8.00;99.90
27922;DHT22;15261;50.356;10.340;2023-11-21T07:45:00;8.10;99.90
27922;DHT22;15261;50.356;10.340;2023-11-21T07:47:25;8.10;99.90
27922;DHT22;15261;50.356;10.340;2023-11-21T07:49:53;8.10;99.90
27922;DHT22;15261;50.356;10.340;2023-11-21T07:52:18;8.20;99.90
27922;DHT22;15261;50.356;10.340;2023-11-21T07:54:46;8.30;99.90
27922;DHT22;15261;50.356;10.340;2023-11-21T07:57:12;8.40;99.90
27922;DHT22;15261;50.356;10.340;2023-11-21T07:59:39;8.50;99.90
27922;DHT22;15261;50.356;10.340;2023-11-21T08:02:06;8.50;99.90
27922;DHT22;15261;50.356;10.340;2023-11-21T08:04:32;8.50;99.90
27922;DHT22;15261;50.356;10.340;2023-11-21T08:06:57;8.50;99.90
27922;DHT22;15261;50.356;10.340;2023-11-21T08:09:23;8.50;99.90
27922;DHT22;15261;50.356;10.340;2023-11-21T08:11:49;8.50;99.90
27922;DHT22;15261;50.356;10.340;2023-11-21T08:14:16;8.50;99.90
27922;DHT22;15261;50.356;10.340;2023-11-21T08:16:42;8.50;99.90
27922;DHT22;15261;50.356;10.340;2023-11-21T08:19:07;8.40;99.90
27922;DHT22;15261;50.356;10.340;2023-11-21T08:21:34;8.30;99.90
27922;DHT22;15261;50.356;10.340;2023-11-21T08:24:02;8.10;99.90
27922;DHT22;15261;50.356;10.340;2023-11-21T08:26:29;8.00;99.90
27922;DHT22;15261;50.356;10.340;2023-11-21T08:28:55;7.90;99.90
27922;DHT22;15261;50.356;10.340;2023-11-21T08:31:26;7.80;99.90
27922;DHT22;15261;50.356;10.340;2023-11-21T08:33:51;7.90;99.90
27922;DHT22;15261;50.356;10.340;2023-11-21T08:36:20;7.90;99.90
27922;DHT22;15261;50.356;10.340;2023-11-21T08:39:16;7.90;99.90
27922;DHT22;15261;50.356;10.340;2023-11-21T08:41:44;8.00;99.90
27922;DHT22;15261;50.356;10.340;2023-11-21T08:44:09;8.00;99.90
27922;DHT22;15261;50.356;10.340;2023-11-21T08:46:36;8.00;99.90
27922;DHT22;15261;50.356;10.340;2023-11-21T08:49:03;8.00;99.90
27922;DHT22;15261;50.356;10.340;2023-11-21T08:51:29;8.10;99.90
27922;DHT22;15261;50.356;10.340;2023-11-21T08:53:55;8.10;99.90
27922;DHT22;15261;50.356;10.340;2023-11-21T08:56:24;8.10;99.90
27922;DHT22;15261;50.356;10.340;2023-11-21T08:58:50;8.20;99.90
27922;DHT22;15261;50.356;10.340;2023-11-21T09:01:16;8.30;99.90
27922;DHT22;15261;50.356;10.340;2023-11-21T09:03:41;8.40;99.90
27922;DHT22;15261;50.356;10.340;2023-11-21T09:06:09;8.40;99.90
27922;DHT22;15261;50.356;10.340;2023-11-21T09:08:35;8.50;99.90
27922;DHT22;15261;50.356;10.340;2023-11-21T09:11:00;8.50;99.90
27922;DHT22;15261;50.356;10.340;2023-11-21T09:13:26;8.60;99.90
27922;DHT22;15261;50.356;10.340;2023-11-21T09:15:52;8.70;99.90
27922;DHT22;15261;50.356;10.340;2023-11-21T09:18:17;8.80;99.90
27922;DHT22;15261;50.356;10.340;2023-11-21T09:20:43;8.90;99.90
27922;DHT22;15261;50.356;10.340;2023-11-21T09:23:11;8.90;99.90
27922;DHT22;15261;50.356;10.340;2023-11-21T09:25:37;9.10;99.90
27922;DHT22;15261;50.356;10.340;2023-11-21T09:28:05;9.30;99.90
27922;DHT22;15261;50.356;10.340;2023-11-21T09:30:34;9.50;99.90
27922;DHT22;15261;50.356;10.340;2023-11-21T09:33:00;9.70;99.90
27922;DHT22;15261;50.356;10.340;2023-11-21T09:35:26;9.90;99.90
27922;DHT22;15261;50.356;10.340;2023-11-21T09:37:53;10.00;99.90
27922;DHT22;15261;50.356;10.340;2023-11-21T09:40:21;9.80;99.90
27922;DHT22;15261;50.356;10.340;2023-11-21T09:42:56;9.60;99.90
27922;DHT22;15261;50.356;10.340;2023-11-21T09:47:53;9.30;99.90
27922;DHT22;15261;50.356;10.340;2023-11-21T09:50:20;9.20;99.90
27922;DHT22;15261;50.356;10.340;2023-11-21T09:55:17;8.90;99.90
27922;DHT22;15261;50.356;10.340;2023-11-21T09:57:45;8.70;99.90
27922;DHT22;15261;50.356;10.340;2023-11-21T10:00:11;8.60;99.90
27922;DHT22;15261;50.356;10.340;2023-11-21T10:02:38;8.60;99.90
27922;DHT22;15261;50.356;10.340;2023-11-21T10:05:06;8.50;99.90
27922;DHT22;15261;50.356;10.340;2023-11-21T10:07:33;8.60;99.90
27922;DHT22;15261;50.356;10.340;2023-11-21T10:10:00;8.60;99.90
27922;DHT22;15261;50.356;10.340;2023-11-21T10:12:28;8.60;99.90
27922;DHT22;15261;50.356;10.340;2023-11-21T10:14:54;8.70;99.90
27922;DHT22;15261;50.356;10.340;2023-11-21T10:17:24;8.90;99.90
27922;DHT22;15261;50.356;10.340;2023-11-21T10:19:53;8.90;99.90
27922;DHT22;15261;50.356;10.340;2023-11-21T10:22:20;9.00;99.90
27922;DHT22;15261;50.356;10.340;2023-11-21T10:24:46;9.10;99.90
27922;DHT22;15261;50.356;10.340;2023-11-21T10:27:11;9.20;99.90
27922;DHT22;15261;50.356;10.340;2023-11-21T10:29:39;9.30;99.90
27922;DHT22;15261;50.356;10.340;2023-11-21T10:32:05;9.40;99.90
27922;DHT22;15261;50.356;10.340;2023-11-21T10:34:37;9.40;99.90
27922;DHT22;15261;50.356;10.340;2023-11-21T10:37:11;9.40;99.90
27922;DHT22;15261;50.356;10.340;2023-11-21T10:39:39;9.40;99.90
27922;DHT22;15261;50.356;10.340;2023-11-21T10:42:04;9.50;99.90
27922;DHT22;15261;50.356;10.340;2023-11-21T10:44:46;9.50;99.90
27922;DHT22;15261;50.356;10.340;2023-11-21T10:47:14;9.60;99.90
27922;DHT22;15261;50.356;10.340;2023-11-21T10:49:41;9.70;99.90
27922;DHT22;15261;50.356;10.340;2023-11-21T10:52:13;9.80;99.90
27922;DHT22;15261;50.356;10.340;2023-11-21T10:58:05;10.10;99.90
27922;DHT22;15261;50.356;10.340;2023-11-21T11:00:32;10.20;99.90
27922;DHT22;15261;50.356;10.340;2023-11-21T11:02:58;10.30;99.90
27922;DHT22;15261;50.356;10.340;2023-11-21T11:05:27;10.30;99.90
27922;DHT22;15261;50.356;10.340;2023-11-21T11:08:29;10.40;99.90
27922;DHT22;15261;50.356;10.340;2023-11-21T11:10:55;10.60;99.90
27922;DHT22;15261;50.356;10.340;2023-11-21T11:13:20;10.70;99.90
27922;DHT22;15261;50.356;10.340;2023-11-21T11:15:50;10.70;99.90
27922;DHT22;15261;50.356;10.340;2023-11-21T11:18:16;10.80;99.90
27922;DHT22;15261;50.356;10.340;2023-11-21T11:20:43;10.90;99.90
27922;DHT22;15261;50.356;10.340;2023-11-21T11:23:36;11.10;99.90
27922;DHT22;15261;50.356;10.340;2023-11-21T11:29:08;11.40;99.90
27922;DHT22;15261;50.356;10.340;2023-11-21T11:34:28;11.60;99.90
27922;DHT22;15261;50.356;10.340;2023-11-21T11:37:07;11.70;99.90
27922;DHT22;15261;50.356;10.340;2023-11-21T11:39:38;11.80;99.90
27922;DHT22;15261;50.356;10.340;2023-11-21T11:42:07;11.90;99.90
27922;DHT22;15261;50.356;10.340;2023-11-21T11:44:53;12.00;99.90
27922;DHT22;15261;50.356;10.340;2023-11-21T11:47:27;12.20;99.90
27922;DHT22;15261;50.356;10.340;2023-11-21T11:50:08;12.20;99.90
27922;DHT22;15261;50.356;10.340;2023-11-21T11:52:50;12.20;99.90
27922;DHT22;15261;50.356;10.340;2023-11-21T11:55:17;12.10;99.90
27922;DHT22;15261;50.356;10.340;2023-11-21T11:57:48;11.90;99.90
27922;DHT22;15261;50.356;10.340;2023-11-21T12:00:35;11.90;99.90
27922;DHT22;15261;50.356;10.340;2023-11-21T12:03:04;11.80;99.90
27922;DHT22;15261;50.356;10.340;2023-11-21T12:05:32;11.70;99.90
27922;DHT22;15261;50.356;10.340;2023-11-21T12:08:04;11.70;99.90
27922;DHT22;15261;50.356;10.340;2023-11-21T12:10:32;11.50;99.90
27922;DHT22;15261;50.356;10.340;2023-11-21T12:13:02;11.40;99.90
27922;DHT22;15261;50.356;10.340;2023-11-21T12:15:30;11.30;99.90
27922;DHT22;15261;50.356;10.340;2023-11-21T12:17:57;11.30;99.90
27922;DHT22;15261;50.356;10.340;2023-11-21T12:20:25;11.20;99.90
27922;DHT22;15261;50.356;10.340;2023-11-21T12:22:56;11.20;99.90
27922;DHT22;15261;50.356;10.340;2023-11-21T12:25:29;11.10;99.90
27922;DHT22;15261;50.356;10.340;2023-11-21T12:27:57;11.10;99.90
27922;DHT22;15261;50.356;10.340;2023-11-21T12:30:25;11.10;99.90
27922;DHT22;15261;50.356;10.340;2023-11-21T12:32:55;11.00;99.90
27922;DHT22;15261;50.356;10.340;2023-11-21T12:35:23;11.00;99.90
27922;DHT22;15261;50.356;10.340;2023-11-21T12:37:52;11.00;99.90
27922;DHT22;15261;50.356;10.340;2023-11-21T12:40:18;11.00;99.90
27922;DHT22;15261;50.356;10.340;2023-11-21T12:42:48;11.00;99.90
27922;DHT22;15261;50.356;10.340;2023-11-21T12:45:28;11.00;99.90
27922;DHT22;15261;50.356;10.340;2023-11-21T12:48:04;11.00;99.90
27922;DHT22;15261;50.356;10.340;2023-11-21T12:50:34;11.10;99.90
27922;DHT22;15261;50.356;10.340;2023-11-21T12:53:02;11.40;99.90
27922;DHT22;15261;50.356;10.340;2023-11-21T12:55:31;11.30;99.90
27922;DHT22;15261;50.356;10.340;2023-11-21T12:57:56;11.40;99.90
27922;DHT22;15261;50.356;10.340;2023-11-21T13:03:20;11.20;99.90
27922;DHT22;15261;50.356;10.340;2023-11-21T13:05:51;11.30;99.90
